• Join FlightAware (Why Join?)
  • Login
  • US Flag 
03:41AM EST


 

Airport Tracker/Info


-or-


 

Live Flight TrackerFlight Track Log ✈ DAL6067 ✈ 27-Apr-2013 ✈ KDTW - KCMH

Flight Track Log - Related Links

Times and Time Zones

All times are in EDT time to prevent confusion due to time zone crossing. See the DAL6067 flight status page for this flight to view local times or setup timezone preferences in your user account.

Time Position Orientation Groundspeed Altitude Reporting Facility
EDT Latitude Longitude Course Direction KTS MPH feet Rate Location/Type
12:13PM 42.2100 -83.3531 180° South 146 168 1,200  Level Cleveland Center
12:14PM 42.1639 -83.3678 193° South 207 238 3,100 2,280 Climbing Cleveland Center
12:15PM 42.1028 -83.3903 195° South 245 282 5,700 2,640 Climbing Cleveland Center
12:16PM 41.8507 -83.2758 180° South  Level Estimated
12:16PM 42.0092 -83.3833 177° South 271 312 9,300  Level Cleveland Center
12:17PM 41.7603 -83.2566 180° South  Level Estimated
12:17PM 41.9322 -83.3744 175° South 271 312 11,600  Level Cleveland Center
12:18PM 41.6698 -83.2374 180° South  Level Estimated
12:18PM 41.8492 -83.3625 174° South 284 327 13,100  Level Cleveland Center
12:19PM 41.7575 -83.3528 175° South 310 357 14,900 1,500 Climbing Cleveland Center
12:20PM 41.6619 -83.3431 176° South 329 379 16,100 540 Climbing Cleveland Center
12:21PM 41.5642 -83.3361 177° South 349 402 16,000 -60 Descending Cleveland Center
12:22PM 41.4739 -83.3628 192° South 344 396 16,000  Level Cleveland Center
12:23PM 41.3914 -83.4119 204° Southwest 334 384 16,000  Level Cleveland Center
12:24PM 41.3067 -83.4636 205° Southwest 328 377 16,000  Level Cleveland Center
12:26PM 41.1592 -83.5467 203° Southwest 334 384 16,000  Level Indianapolis Center
12:27PM 41.0700 -83.5972 203° Southwest 339 390 16,000 -60 Level Indianapolis Center
12:28PM 40.9817 -83.6483 204° Southwest 342 394 15,900 -60 Descending Indianapolis Center
12:29PM 40.8883 -83.6794 194° South 353 406 15,900  Level Indianapolis Center
12:30PM 40.8017 -83.6181 152° Southeast 355 409 15,900 -480 Level Indianapolis Center
12:31PM 40.7208 -83.5469 146° Southeast 347 399 15,000 -1,320 Descending Indianapolis Center
12:32PM 40.6383 -83.4733 146° Southeast 353 406 13,300 -1,620 Descending Indianapolis Center
12:33PM 40.5617 -83.4061 146° Southeast 335 386 11,700 -1,620 Descending Indianapolis Center
12:34PM 40.4903 -83.3431 146° Southeast 314 361 10,100 -1,020 Descending Indianapolis Center
12:35PM 40.4339 -83.3047 153° Southeast 265 305 10,000 -240 Descending Indianapolis Center
12:35PM 40.4231 -83.2958 148° Southeast 282 325 9,900 -1,020 Descending Indianapolis Center
12:36PM 40.3678 -83.2614 155° Southeast 259 298 9,000 -1,200 Descending Indianapolis Center
12:36PM 40.3572 -83.2517 145° Southeast 266 306 8,700 -1,680 Descending Indianapolis Center
12:37PM 40.3056 -83.2211 156° South 248 285 7,300 -1,680 Descending Indianapolis Center
12:37PM 40.2956 -83.2125 147° Southeast 251 289 7,000 -1,680 Descending Indianapolis Center
12:38PM 40.2456 -83.1811 154° Southeast 242 278 5,600 -1,800 Descending Indianapolis Center
12:38PM 40.2356 -83.1736 150° Southeast 241 277 5,200 -1,620 Descending Indianapolis Center
12:39PM 40.1875 -83.1442 155° Southeast 230 265 4,000 -1,320 Descending Indianapolis Center
12:39PM 40.1761 -83.1353 149° Southeast 238 274 3,900 -120 Descending Indianapolis Center
12:40PM 40.1275 -83.1044 154° Southeast 245 282 3,900  Level Indianapolis Center
12:40PM 40.1139 -83.0956 153° Southeast 240 276 3,900  Level Indianapolis Center
12:41PM 40.0633 -83.0914 176° South 208 239 3,900 -300 Level Indianapolis Center
12:41PM 40.0447 -83.0911 179° South 222 255 3,600 -900 Descending Indianapolis Center